createdAt,value
2023-05-06T00:01:54.124Z,23.74
2023-05-06T00:04:22.524Z,23.66
2023-05-06T00:06:51.435Z,23.65
2023-05-06T00:09:19.744Z,23.59
2023-05-06T00:11:48.411Z,23.67
2023-05-06T00:14:16.865Z,23.56
2023-05-06T00:16:46.621Z,23.83
2023-05-06T00:19:14.958Z,23.43
2023-05-06T00:21:43.168Z,23.92
2023-05-06T00:24:11.442Z,23.45
2023-05-06T00:26:39.737Z,23.31
2023-05-06T00:29:07.975Z,23.29
2023-05-06T00:31:36.276Z,22.53
2023-05-06T00:34:05.931Z,22.19
2023-05-06T00:36:34.187Z,21.73
2023-05-06T00:39:02.473Z,22.46
2023-05-06T00:41:32.858Z,23.07
2023-05-06T00:44:01.208Z,22.89
2023-05-06T00:46:29.528Z,22.94
2023-05-06T00:48:57.906Z,22.95
2023-05-06T00:51:28.047Z,22.86
2023-05-06T00:53:56.788Z,23.67
2023-05-06T00:56:25.147Z,22.31
2023-05-06T00:58:53.959Z,23.54
2023-05-06T01:01:23.912Z,23.73
2023-05-06T01:03:57.244Z,23.77
2023-05-06T01:06:31.126Z,23.74
2023-05-06T01:09:05.960Z,23.71
2023-05-06T01:11:40.083Z,23.81
2023-05-06T01:14:13.716Z,23.31
2023-05-06T01:16:42.746Z,23.38
2023-05-06T01:19:14.153Z,23.09
2023-05-06T01:21:45.793Z,23.24
2023-05-06T01:24:15.444Z,22.91
2023-05-06T01:26:44.036Z,22.87
2023-05-06T01:29:12.976Z,23.51
2023-05-06T01:31:46.589Z,23.26
2023-05-06T01:34:19.048Z,22.93
2023-05-06T01:36:53.668Z,23.09
2023-05-06T01:39:27.350Z,22.62
2023-05-06T01:41:59.300Z,22.66
2023-05-06T01:44:29.133Z,22.61
2023-05-06T01:48:01.740Z,23.31
2023-05-06T01:50:30.731Z,23.44
2023-05-06T01:53:00.048Z,23.32
2023-05-06T01:55:30.118Z,23.48
2023-05-06T01:57:58.360Z,23.22
2023-05-06T02:00:27.202Z,23.66
2023-05-06T02:02:55.541Z,23.08
2023-05-06T02:05:23.831Z,23.68
2023-05-06T02:07:52.046Z,22.98
2023-05-06T02:10:20.330Z,23.21
2023-05-06T02:12:50.036Z,22.54
2023-05-06T02:15:18.578Z,22.48
2023-05-06T02:17:46.811Z,22.75
2023-05-06T02:20:15.064Z,23.01
2023-05-06T02:22:43.314Z,22.93
2023-05-06T02:25:11.655Z,23.81
2023-05-06T02:27:40.290Z,23.18
2023-05-06T02:30:10.838Z,23.59
2023-05-06T02:32:38.980Z,23.86
2023-05-06T02:35:08.587Z,23.27
2023-05-06T02:37:37.058Z,22.96
2023-05-06T02:40:06.697Z,23.12
2023-05-06T02:42:35.378Z,23.68
2023-05-06T02:45:03.680Z,23.26
2023-05-06T02:47:33.462Z,23.53
2023-05-06T02:50:01.707Z,23.50
2023-05-06T02:52:29.973Z,22.97
2023-05-06T02:54:58.179Z,22.11
2023-05-06T02:57:26.483Z,22.88
2023-05-06T02:59:54.719Z,22.10
2023-05-06T03:02:23.020Z,22.66
2023-05-06T03:04:52.808Z,23.09
2023-05-06T03:07:21.194Z,22.62
2023-05-06T03:09:49.458Z,22.52
2023-05-06T03:12:17.777Z,22.62
2023-05-06T03:14:45.967Z,22.63
2023-05-06T03:17:14.262Z,23.27
2023-05-06T03:19:42.621Z,23.79
2023-05-06T03:22:12.194Z,23.62
2023-05-06T03:24:40.653Z,23.81
2023-05-06T03:27:09.400Z,23.55
2023-05-06T03:29:37.661Z,23.92
2023-05-06T03:32:06.537Z,24.14
2023-05-06T03:34:34.787Z,23.76
2023-05-06T03:37:03.101Z,23.84
2023-05-06T03:39:32.738Z,23.63
2023-05-06T03:42:01.002Z,23.08
2023-05-06T03:44:29.218Z,23.72
2023-05-06T03:46:57.466Z,23.52
2023-05-06T03:49:26.001Z,23.08
2023-05-06T03:51:54.467Z,23.03
2023-05-06T03:54:23.211Z,23.65
2023-05-06T03:56:52.806Z,23.72
2023-05-06T03:59:21.040Z,23.79
2023-05-06T04:01:49.370Z,23.77
2023-05-06T04:04:17.911Z,23.52
2023-05-06T04:06:46.168Z,23.68
2023-05-06T04:09:14.448Z,23.82
2023-05-06T04:11:42.683Z,23.83
2023-05-06T04:14:12.270Z,23.89
2023-05-06T04:16:40.626Z,24.13
2023-05-06T04:19:09.309Z,23.74
2023-05-06T04:21:37.536Z,23.59
2023-05-06T04:24:06.253Z,23.30
2023-05-06T04:26:35.065Z,23.35
2023-05-06T04:29:03.322Z,23.23
2023-05-06T04:31:33.232Z,23.25
2023-05-06T04:34:02.681Z,23.18
2023-05-06T04:36:31.000Z,23.22
2023-05-06T04:38:59.230Z,23.40
2023-05-06T04:41:29.302Z,23.17
2023-05-06T04:43:57.804Z,23.27
2023-05-06T04:46:26.127Z,23.43
2023-05-06T04:48:56.913Z,24.41
2023-05-06T04:51:25.282Z,25.06
2023-05-06T04:53:53.667Z,25.27
2023-05-06T04:56:22.559Z,26.02
2023-05-06T04:58:50.873Z,26.07
2023-05-06T05:01:19.531Z,26.52
2023-05-06T05:03:47.856Z,25.85
2023-05-06T05:06:17.575Z,24.57
2023-05-06T05:08:45.821Z,24.62
2023-05-06T05:11:14.113Z,24.04
2023-05-06T05:13:42.378Z,23.59
2023-05-06T05:16:10.608Z,24.45
2023-05-06T05:18:38.811Z,24.06
2023-05-06T05:21:07.159Z,23.79
2023-05-06T05:23:36.744Z,24.26
2023-05-06T05:26:05.138Z,24.13
2023-05-06T05:28:33.501Z,24.34
2023-05-06T05:31:03.411Z,24.03
2023-05-06T05:33:31.714Z,24.30
2023-05-06T05:36:00.030Z,24.60
2023-05-06T05:38:28.322Z,23.65
2023-05-06T05:40:58.124Z,23.01
2023-05-06T05:43:27.043Z,23.06
2023-05-06T05:45:55.401Z,22.71
2023-05-06T05:48:23.867Z,23.13
2023-05-06T05:50:52.091Z,23.82
2023-05-06T05:53:20.334Z,23.23
2023-05-06T05:55:48.557Z,24.20
2023-05-06T05:58:18.446Z,23.85
2023-05-06T06:00:46.637Z,24.89
2023-05-06T06:03:14.971Z,25.29
2023-05-06T06:05:43.286Z,25.38
2023-05-06T06:08:11.580Z,25.68
2023-05-06T06:10:39.772Z,26.14
2023-05-06T06:13:08.076Z,26.26
2023-05-06T06:15:37.952Z,26.31
2023-05-06T06:18:08.727Z,26.34
2023-05-06T06:20:38.715Z,26.10
2023-05-06T06:23:07.000Z,25.06
2023-05-06T06:25:35.257Z,25.48
2023-05-06T06:28:03.482Z,24.80
2023-05-06T06:30:31.864Z,24.01
2023-05-06T06:33:02.126Z,24.02
2023-05-06T06:35:30.461Z,24.79
2023-05-06T06:37:58.678Z,24.26
2023-05-06T06:40:27.064Z,24.93
2023-05-06T06:42:55.421Z,24.69
2023-05-06T06:45:24.056Z,26.24
2023-05-06T06:47:52.410Z,25.05
2023-05-06T06:50:22.283Z,25.76
2023-05-06T06:52:50.542Z,24.53
2023-05-06T06:55:19.362Z,25.16
2023-05-06T06:57:47.592Z,24.67
2023-05-06T07:00:16.546Z,25.58
2023-05-06T07:02:46.921Z,24.99
2023-05-06T07:05:15.408Z,24.67
2023-05-06T07:07:45.089Z,25.85
2023-05-06T07:10:13.353Z,25.54
2023-05-06T07:12:41.654Z,25.98
2023-05-06T07:15:10.709Z,26.11
2023-05-06T07:17:39.176Z,27.02
2023-05-06T07:20:09.080Z,26.83
2023-05-06T07:22:37.456Z,27.07
2023-05-06T07:25:08.678Z,27.55
2023-05-06T07:27:37.095Z,27.97
2023-05-06T07:30:06.162Z,26.99
2023-05-06T07:32:34.427Z,28.41
2023-05-06T07:35:02.803Z,28.49
2023-05-06T07:37:31.050Z,26.55
2023-05-06T07:39:59.723Z,26.82
2023-05-06T07:42:29.492Z,27.03
2023-05-06T07:44:57.782Z,27.71
2023-05-06T07:47:31.452Z,28.11
2023-05-06T07:50:00.228Z,26.66
2023-05-06T07:52:29.432Z,26.34
2023-05-06T07:54:57.715Z,27.20
2023-05-06T07:57:26.005Z,25.21
2023-05-06T07:59:55.559Z,26.36
2023-05-06T08:02:23.932Z,26.70
2023-05-06T08:04:52.278Z,26.81
2023-05-06T08:07:21.246Z,26.85
2023-05-06T08:09:49.491Z,26.88
2023-05-06T08:12:17.768Z,26.99
2023-05-06T08:14:46.650Z,28.39
2023-05-06T08:17:16.280Z,28.06
2023-05-06T08:19:44.757Z,27.96
2023-05-06T08:22:13.019Z,27.84
2023-05-06T08:24:41.307Z,27.54
2023-05-06T08:27:09.647Z,28.41
2023-05-06T08:29:37.912Z,29.08
2023-05-06T08:32:06.643Z,28.30
2023-05-06T08:34:36.376Z,27.64
2023-05-06T08:37:04.623Z,27.85
2023-05-06T08:39:33.224Z,27.98
2023-05-06T08:42:03.028Z,28.56
2023-05-06T08:44:31.471Z,28.35
2023-05-06T08:46:59.858Z,29.69
2023-05-06T08:49:28.330Z,28.34
2023-05-06T08:51:58.107Z,29.15
2023-05-06T08:54:27.497Z,29.74
2023-05-06T08:56:58.113Z,29.19
2023-05-06T08:59:27.636Z,28.65
2023-05-06T09:01:55.940Z,29.04
2023-05-06T09:04:24.279Z,28.97
2023-05-06T09:06:52.560Z,28.20
2023-05-06T09:09:22.321Z,28.98
2023-05-06T09:11:54.052Z,28.99
2023-05-06T09:14:23.123Z,28.68
2023-05-06T09:16:53.417Z,29.35
2023-05-06T09:19:22.966Z,30.10
2023-05-06T09:21:52.364Z,28.86
2023-05-06T09:24:22.321Z,29.47
2023-05-06T09:26:52.482Z,29.74
2023-05-06T09:29:20.688Z,30.60
2023-05-06T09:31:49.734Z,30.61
2023-05-06T09:34:18.125Z,30.03
2023-05-06T09:36:46.378Z,29.08
2023-05-06T09:39:14.717Z,30.09
2023-05-06T09:41:45.132Z,30.02
2023-05-06T09:44:14.039Z,30.33
2023-05-06T09:46:42.417Z,29.19
2023-05-06T09:49:11.578Z,29.92
2023-05-06T09:51:41.506Z,30.41
2023-05-06T09:54:10.170Z,28.96
2023-05-06T09:56:38.808Z,29.27
2023-05-06T09:59:08.857Z,29.70
2023-05-06T10:01:37.972Z,29.56
2023-05-06T10:04:09.816Z,30.39
2023-05-06T10:06:41.600Z,30.20
2023-05-06T10:09:13.010Z,30.72
2023-05-06T10:11:41.536Z,29.46
2023-05-06T10:14:11.310Z,29.59
2023-05-06T10:16:40.474Z,30.14
2023-05-06T10:19:09.849Z,30.15
2023-05-06T10:21:41.696Z,29.74
2023-05-06T10:24:13.784Z,29.80
2023-05-06T10:26:48.040Z,29.47
2023-05-06T10:29:18.729Z,29.81
2023-05-06T10:31:49.747Z,29.78
2023-05-06T10:34:21.103Z,30.21
2023-05-06T10:36:51.951Z,31.21
2023-05-06T10:39:20.242Z,30.59
2023-05-06T10:41:48.745Z,30.71
2023-05-06T10:44:18.343Z,28.81
2023-05-06T10:47:00.914Z,29.07
2023-05-06T10:49:29.835Z,29.39
2023-05-06T10:52:12.523Z,28.91
2023-05-06T10:54:51.449Z,29.32
2023-05-06T10:57:28.726Z,29.06
2023-05-06T10:59:58.774Z,29.04
2023-05-06T11:02:27.132Z,29.85
2023-05-06T11:05:01.798Z,29.01
2023-05-06T11:07:30.182Z,29.40
2023-05-06T11:09:59.578Z,30.16
2023-05-06T11:13:00.093Z,31.44
2023-05-06T11:15:40.507Z,29.88
2023-05-06T11:18:42.437Z,29.67
2023-05-06T11:21:41.633Z,31.65
2023-05-06T11:24:14.026Z,30.60
2023-05-06T11:26:43.196Z,30.39
2023-05-06T11:29:11.502Z,29.82
2023-05-06T11:31:42.954Z,30.24
2023-05-06T11:34:13.671Z,30.22
2023-05-06T11:36:49.484Z,30.08
2023-05-06T11:39:17.830Z,30.39
2023-05-06T11:41:49.763Z,30.49
2023-05-06T11:44:26.008Z,31.58
2023-05-06T11:46:59.164Z,30.49
2023-05-06T11:49:28.196Z,30.61
2023-05-06T11:51:58.044Z,30.21
2023-05-06T11:54:33.205Z,31.16
2023-05-06T11:57:02.127Z,30.48
2023-05-06T11:59:32.759Z,29.95
2023-05-06T12:02:04.267Z,30.76
2023-05-06T12:04:39.795Z,31.73
2023-05-06T12:07:08.685Z,32.05
2023-05-06T12:09:37.286Z,32.29
2023-05-06T12:12:06.598Z,32.78
2023-05-06T12:14:35.212Z,33.27
2023-05-06T12:17:05.283Z,32.60
2023-05-06T12:19:33.964Z,33.63
2023-05-06T12:22:19.019Z,33.28
2023-05-06T12:24:47.804Z,33.14
2023-05-06T12:27:16.448Z,32.86
2023-05-06T12:29:53.837Z,32.53
2023-05-06T12:32:23.816Z,33.16
2023-05-06T12:34:52.208Z,32.25
2023-05-06T12:37:29.848Z,31.75
2023-05-06T12:39:59.358Z,31.53
2023-05-06T12:42:28.105Z,31.91
2023-05-06T12:44:56.606Z,31.75
2023-05-06T12:47:27.004Z,30.56
2023-05-06T12:50:07.931Z,31.67
2023-05-06T12:52:44.689Z,32.48
2023-05-06T12:55:18.624Z,32.66
2023-05-06T12:57:49.211Z,31.71
2023-05-06T13:00:18.149Z,31.61
2023-05-06T13:02:48.135Z,31.28
2023-05-06T13:05:16.554Z,31.31
2023-05-06T13:07:45.027Z,31.77
2023-05-06T13:10:14.952Z,31.06
2023-05-06T13:12:43.585Z,30.60
2023-05-06T13:15:12.116Z,31.11
2023-05-06T13:17:40.522Z,31.24
2023-05-06T13:20:13.190Z,31.66
2023-05-06T13:22:53.913Z,31.28
2023-05-06T13:25:22.988Z,31.01
2023-05-06T13:27:51.282Z,30.75
2023-05-06T13:30:19.549Z,30.89
2023-05-06T13:32:48.707Z,31.58
2023-05-06T13:35:18.498Z,31.08
2023-05-06T13:37:46.887Z,31.26
2023-05-06T13:40:15.773Z,32.31
2023-05-06T13:42:43.976Z,32.05
2023-05-06T13:45:12.387Z,32.88
2023-05-06T13:47:42.316Z,32.96
2023-05-06T13:50:11.448Z,32.58
2023-05-06T13:52:41.245Z,32.09
2023-05-06T13:55:10.168Z,32.48
2023-05-06T13:57:38.604Z,31.76
2023-05-06T14:00:08.366Z,32.64
2023-05-06T14:02:37.356Z,31.90
2023-05-06T14:05:06.854Z,30.71
2023-05-06T14:07:35.241Z,31.33
2023-05-06T14:10:05.546Z,31.14
2023-05-06T14:12:33.677Z,32.47
2023-05-06T14:15:02.056Z,31.52
2023-05-06T14:17:30.535Z,32.58
2023-05-06T14:19:58.797Z,32.34
2023-05-06T14:22:27.104Z,32.44
2023-05-06T14:24:55.455Z,31.97
2023-05-06T14:27:25.170Z,32.47
2023-05-06T14:29:53.457Z,31.56
2023-05-06T14:32:21.722Z,32.28
2023-05-06T14:34:49.984Z,32.73
2023-05-06T14:37:18.765Z,32.74
2023-05-06T14:39:47.276Z,31.98
2023-05-06T14:42:15.590Z,32.02
2023-05-06T14:44:48.597Z,31.63
2023-05-06T14:47:16.829Z,31.74
2023-05-06T14:49:45.379Z,31.54
2023-05-06T14:52:13.752Z,31.79
2023-05-06T14:54:42.539Z,32.81
2023-05-06T14:57:11.317Z,32.88
2023-05-06T14:59:39.750Z,32.47
2023-05-06T15:02:10.693Z,30.57
2023-05-06T15:04:38.952Z,31.82
2023-05-06T15:07:07.231Z,31.54
2023-05-06T15:09:35.592Z,32.43
2023-05-06T15:12:03.916Z,32.28
2023-05-06T15:14:32.282Z,31.59
2023-05-06T15:17:00.734Z,31.47
2023-05-06T15:19:30.432Z,32.45
2023-05-06T15:21:58.756Z,32.73
2023-05-06T15:24:27.225Z,32.37
2023-05-06T15:26:55.790Z,32.93
2023-05-06T15:29:24.697Z,32.54
2023-05-06T15:31:53.036Z,31.99
2023-05-06T15:34:21.431Z,32.34
2023-05-06T15:36:54.100Z,33.39
2023-05-06T15:39:22.577Z,33.35
2023-05-06T15:41:50.917Z,33.12
2023-05-06T15:44:20.899Z,32.50
2023-05-06T15:46:49.373Z,32.68
2023-05-06T15:49:48.842Z,31.42
2023-05-06T15:52:07.172Z,31.98
2023-05-06T15:54:37.598Z,31.32
2023-05-06T15:57:07.020Z,32.33
2023-05-06T15:59:35.691Z,33.02
2023-05-06T16:04:35.449Z,32.14
2023-05-06T16:07:03.931Z,32.88
2023-05-06T16:09:33.575Z,33.95
2023-05-06T16:12:01.882Z,33.99
2023-05-06T16:14:30.152Z,33.14
2023-05-06T16:16:59.367Z,34.02
2023-05-06T16:19:30.240Z,33.81
2023-05-06T16:22:11.930Z,33.29
2023-05-06T16:24:41.877Z,32.54
2023-05-06T16:27:10.098Z,31.35
2023-05-06T16:29:38.478Z,31.71
2023-05-06T16:32:07.038Z,31.35
2023-05-06T16:34:35.342Z,31.47
2023-05-06T16:37:03.690Z,31.52
2023-05-06T16:39:31.959Z,32.00
2023-05-06T16:42:01.840Z,32.30
2023-05-06T16:44:30.481Z,32.50
2023-05-06T16:46:58.745Z,32.33
2023-05-06T16:49:28.123Z,33.07
2023-05-06T16:51:57.221Z,33.27
2023-05-06T16:54:25.670Z,33.27
2023-05-06T16:56:54.114Z,33.46
2023-05-06T16:59:23.739Z,33.44
2023-05-06T17:01:51.934Z,33.73
2023-05-06T17:04:20.165Z,33.86
2023-05-06T17:06:48.473Z,34.29
2023-05-06T17:09:17.019Z,34.34
2023-05-06T17:11:45.397Z,34.31
2023-05-06T17:14:13.987Z,34.10
2023-05-06T17:16:45.238Z,34.67
2023-05-06T17:19:13.891Z,34.36
2023-05-06T17:21:42.684Z,35.13
2023-05-06T17:24:11.255Z,34.73
2023-05-06T17:26:40.811Z,34.68
2023-05-06T17:29:09.034Z,34.22
2023-05-06T17:31:37.280Z,33.94
2023-05-06T17:34:07.502Z,33.84
2023-05-06T17:36:35.786Z,33.56
2023-05-06T17:39:04.619Z,33.42
2023-05-06T17:41:33.579Z,33.17
2023-05-06T17:44:01.850Z,33.02
2023-05-06T17:46:30.184Z,33.16
2023-05-06T17:48:58.473Z,33.14
2023-05-06T17:51:28.120Z,32.96
2023-05-06T17:53:56.452Z,32.72
2023-05-06T17:56:24.707Z,32.51
2023-05-06T17:58:53.816Z,32.39
2023-05-06T18:01:22.521Z,32.22
2023-05-06T18:03:50.907Z,31.73
2023-05-06T18:06:19.261Z,31.76
2023-05-06T18:08:49.074Z,31.59
2023-05-06T18:11:17.413Z,31.26
2023-05-06T18:13:45.630Z,31.14
2023-05-06T18:16:13.917Z,30.93
2023-05-06T18:18:43.417Z,30.76
2023-05-06T18:21:11.647Z,30.62
2023-05-06T18:23:39.987Z,30.49
2023-05-06T18:26:09.564Z,30.21
2023-05-06T18:28:38.648Z,29.74
2023-05-06T18:31:07.575Z,29.57
2023-05-06T18:33:37.641Z,29.54
2023-05-06T18:36:06.838Z,29.46
2023-05-06T18:38:35.862Z,29.39
2023-05-06T18:41:04.054Z,28.77
2023-05-06T18:43:33.768Z,29.07
2023-05-06T18:46:02.143Z,28.99
2023-05-06T18:48:31.948Z,28.95
2023-05-06T18:51:17.059Z,28.83
2023-05-06T18:53:45.826Z,28.79
2023-05-06T18:56:14.770Z,28.62
2023-05-06T18:58:49.362Z,28.61
2023-05-06T19:01:17.792Z,28.51
2023-05-06T19:03:46.133Z,28.47
2023-05-06T19:06:14.355Z,28.30
2023-05-06T19:08:42.637Z,28.23
2023-05-06T19:11:15.257Z,28.16
2023-05-06T19:13:56.526Z,27.94
2023-05-06T19:16:25.756Z,27.86
2023-05-06T19:18:56.337Z,27.71
2023-05-06T19:21:27.944Z,27.65
2023-05-06T19:23:59.885Z,27.48
2023-05-06T19:26:28.410Z,27.48
2023-05-06T19:28:58.009Z,27.42
2023-05-06T19:31:26.512Z,27.40
2023-05-06T19:33:54.873Z,27.40
2023-05-06T19:36:23.194Z,27.35
2023-05-06T19:38:51.483Z,27.09
2023-05-06T19:41:19.846Z,26.43
2023-05-06T19:43:48.129Z,25.98
2023-05-06T19:46:18.087Z,26.46
2023-05-06T19:48:46.708Z,26.80
2023-05-06T19:51:14.991Z,26.78
2023-05-06T19:53:43.252Z,26.74
2023-05-06T19:56:11.898Z,26.85
2023-05-06T19:58:42.087Z,26.86
2023-05-06T20:01:10.839Z,26.81
2023-05-06T20:03:45.168Z,26.72
2023-05-06T20:06:17.170Z,26.73
2023-05-06T20:08:46.030Z,26.35
2023-05-06T20:11:14.314Z,26.62
2023-05-06T20:13:42.633Z,26.66
2023-05-06T20:16:11.132Z,26.59
2023-05-06T20:18:42.821Z,26.57
2023-05-06T20:21:11.122Z,26.46
2023-05-06T20:23:39.318Z,26.42
2023-05-06T20:26:07.573Z,26.38
2023-05-06T20:28:39.074Z,26.31
2023-05-06T20:31:07.662Z,26.25
2023-05-06T20:33:36.109Z,26.23
2023-05-06T20:36:06.584Z,26.18
2023-05-06T20:38:34.734Z,26.16
2023-05-06T20:41:03.169Z,25.96
2023-05-06T20:43:32.642Z,25.54
2023-05-06T20:46:01.225Z,25.84
2023-05-06T20:48:31.317Z,25.78
2023-05-06T20:50:59.688Z,25.78
2023-05-06T20:53:29.366Z,25.71
2023-05-06T20:55:57.649Z,25.57
2023-05-06T20:58:26.026Z,25.62
2023-05-06T21:00:54.340Z,25.61
2023-05-06T21:03:24.008Z,25.54
2023-05-06T21:05:53.141Z,25.42
2023-05-06T21:08:21.525Z,25.36
2023-05-06T21:10:51.228Z,25.33
2023-05-06T21:13:19.860Z,25.19
2023-05-06T21:15:48.306Z,25.17
2023-05-06T21:18:17.206Z,25.02
2023-05-06T21:20:45.582Z,25.01
2023-05-06T21:23:13.806Z,25.00
2023-05-06T21:25:42.360Z,24.95
2023-05-06T21:28:12.138Z,24.91
2023-05-06T21:30:40.627Z,24.85
2023-05-06T21:33:11.118Z,24.86
2023-05-06T21:35:39.499Z,24.87
2023-05-06T21:38:08.033Z,24.82
2023-05-06T21:40:36.500Z,24.74
2023-05-06T21:43:04.773Z,24.61
2023-05-06T21:45:34.398Z,24.74
2023-05-06T21:48:02.811Z,24.77
2023-05-06T21:50:31.165Z,24.62
2023-05-06T21:52:59.518Z,24.60
2023-05-06T21:55:27.872Z,24.52
2023-05-06T21:57:56.222Z,24.61
2023-05-06T22:00:24.592Z,24.58
2023-05-06T22:02:54.497Z,24.47
2023-05-06T22:05:23.068Z,24.37
2023-05-06T22:07:51.455Z,24.42
2023-05-06T22:10:19.946Z,24.39
2023-05-06T22:12:48.204Z,24.36
2023-05-06T22:15:16.552Z,24.30
2023-05-06T22:17:44.939Z,24.21
2023-05-06T22:20:15.146Z,23.82
2023-05-06T22:22:43.784Z,23.80
2023-05-06T22:25:12.256Z,23.75
2023-05-06T22:27:40.947Z,24.10
2023-05-06T22:30:10.495Z,24.12
2023-05-06T22:32:38.888Z,23.64
2023-05-06T22:35:08.902Z,23.66
2023-05-06T22:37:38.802Z,23.20
2023-05-06T22:40:08.195Z,22.71
2023-05-06T22:42:36.458Z,22.90
2023-05-06T22:45:05.469Z,23.22
2023-05-06T22:47:33.744Z,23.82
2023-05-06T22:50:02.177Z,24.01
2023-05-06T22:52:30.638Z,24.10
2023-05-06T22:55:00.561Z,23.76
2023-05-06T22:57:28.892Z,23.32
2023-05-06T22:59:57.195Z,23.24
2023-05-06T23:02:25.472Z,23.87
2023-05-06T23:04:53.757Z,23.92
2023-05-06T23:07:22.053Z,23.61
2023-05-06T23:09:50.297Z,23.54
2023-05-06T23:12:19.878Z,23.43
2023-05-06T23:14:48.089Z,23.44
2023-05-06T23:17:16.407Z,23.59
2023-05-06T23:19:45.941Z,23.75
2023-05-06T23:22:14.277Z,23.55
2023-05-06T23:24:42.574Z,23.63
2023-05-06T23:27:11.382Z,23.27
2023-05-06T23:29:41.185Z,23.27
2023-05-06T23:32:09.943Z,23.65
2023-05-06T23:34:38.315Z,23.32
2023-05-06T23:37:06.623Z,23.57
2023-05-06T23:39:34.898Z,23.68
2023-05-06T23:42:03.346Z,23.59
2023-05-06T23:44:31.661Z,23.40
2023-05-06T23:47:01.467Z,23.49
2023-05-06T23:49:29.719Z,23.15
2023-05-06T23:51:58.129Z,23.26
2023-05-06T23:54:26.362Z,23.32
2023-05-06T23:56:55.678Z,23.50
2023-05-06T23:59:24.041Z,23.55
